createdAt,value
2023-03-18T00:01:08.637Z,16.8
2023-03-18T00:07:01.522Z,16.6
2023-03-18T00:12:39.232Z,16.4
2023-03-18T00:17:29.630Z,16.4
2023-03-18T00:22:51.606Z,16.3
2023-03-18T00:28:43.944Z,16.1
2023-03-18T00:34:20.968Z,16.1
2023-03-18T00:40:14.403Z,16.2
2023-03-18T00:46:08.556Z,16.3
2023-03-18T00:51:29.773Z,16.3
2023-03-18T00:57:07.841Z,16.3
2023-03-18T01:03:01.683Z,16.2
2023-03-18T01:08:38.820Z,16
2023-03-18T01:14:19.711Z,15.9
2023-03-18T01:20:12.629Z,15.8
2023-03-18T01:25:34.583Z,15.7
2023-03-18T01:31:11.693Z,15.7
2023-03-18T01:37:04.456Z,15.9
2023-03-18T01:42:56.006Z,15.9
2023-03-18T01:48:34.020Z,15.9
2023-03-18T01:53:55.964Z,15.8
2023-03-18T01:59:48.273Z,15.6
2023-03-18T02:05:42.535Z,15.6
2023-03-18T02:11:34.867Z,15.5
2023-03-18T02:17:12.123Z,15.4
2023-03-18T02:22:33.822Z,15.4
2023-03-18T02:28:12.272Z,15.6
2023-03-18T02:34:04.847Z,15.8
2023-03-18T02:39:58.200Z,15.8
2023-03-18T02:45:51.017Z,15.7
2023-03-18T02:51:42.706Z,15.6
2023-03-18T02:57:35.691Z,15.5
2023-03-18T03:02:42.710Z,15.4
2023-03-18T03:08:20.521Z,15.3
2023-03-18T03:13:57.465Z,15.2
2023-03-18T03:19:34.530Z,15.3
2023-03-18T03:25:27.742Z,15.5
2023-03-18T03:31:20.507Z,15.6
2023-03-18T03:36:42.036Z,15.5
2023-03-18T03:42:34.782Z,15.5
2023-03-18T03:48:28.337Z,15.4
2023-03-18T03:54:05.918Z,15.3
2023-03-18T03:59:42.718Z,15.1
2023-03-18T04:05:04.963Z,15.1
2023-03-18T04:10:42.114Z,15
2023-03-18T04:16:35.399Z,15.1
2023-03-18T04:21:58.096Z,15.1
2023-03-18T04:27:34.443Z,15.1
2023-03-18T04:33:27.430Z,15.3
2023-03-18T04:39:20.162Z,15.3
2023-03-18T04:45:13.469Z,15.3
2023-03-18T04:51:07.038Z,15.2
2023-03-18T04:56:44.331Z,15.1
2023-03-18T05:02:25.336Z,15
2023-03-18T05:08:18.016Z,14.9
2023-03-18T05:14:10.502Z,14.8
2023-03-18T05:19:31.798Z,14.8
2023-03-18T05:25:24.199Z,14.9
2023-03-18T05:31:17.376Z,15.1
2023-03-18T05:37:11.829Z,15.3
2023-03-18T05:43:12.609Z,15.1
2023-03-18T05:49:05.098Z,15.1
2023-03-18T05:54:58.358Z,14.9
2023-03-18T06:00:21.548Z,14.8
2023-03-18T06:05:59.864Z,14.8
2023-03-18T06:11:54.625Z,14.7
2023-03-18T06:17:47.675Z,14.7
2023-03-18T06:23:26.223Z,14.9
2023-03-18T06:29:18.844Z,15.1
2023-03-18T06:35:13.016Z,15.1
2023-03-18T06:41:04.951Z,15
2023-03-18T06:47:00.508Z,14.8
2023-03-18T06:52:53.002Z,14.8
2023-03-18T06:58:45.281Z,14.8
2023-03-18T07:04:22.567Z,14.6
2023-03-18T07:10:15.787Z,14.6
2023-03-18T07:16:08.021Z,14.7
2023-03-18T07:22:04.291Z,14.8
2023-03-18T07:27:27.527Z,14.9
2023-03-18T07:33:24.030Z,14.9
2023-03-18T07:39:17.414Z,14.9
2023-03-18T07:45:12.375Z,15.1
2023-03-18T07:51:05.461Z,15.3
2023-03-18T07:56:58.595Z,15.1
2023-03-18T08:02:55.972Z,15
2023-03-18T08:08:34.931Z,14.9
2023-03-18T08:14:47.901Z,14.8
2023-03-18T08:20:41.081Z,14.8
2023-03-18T08:26:33.718Z,15
2023-03-18T08:32:27.975Z,15.1
2023-03-18T08:38:23.183Z,15.1
2023-03-18T08:43:59.883Z,15.1
2023-03-18T08:49:53.125Z,14.9
2023-03-18T08:55:29.988Z,14.9
2023-03-18T09:01:07.328Z,15
2023-03-18T09:06:29.887Z,15.1
2023-03-18T09:12:29.494Z,15.1
2023-03-18T09:18:48.342Z,15.1
2023-03-18T09:24:41.299Z,15
2023-03-18T09:30:33.900Z,15.1
2023-03-18T09:36:27.091Z,15.2
2023-03-18T09:42:20.946Z,15.2
2023-03-18T09:48:13.820Z,15
2023-03-18T09:54:06.448Z,14.9
2023-03-18T09:59:43.757Z,15.1
2023-03-18T10:05:36.540Z,15.2
2023-03-18T10:11:13.269Z,15.2
2023-03-18T10:16:50.876Z,15.1
2023-03-18T10:22:44.647Z,15.2
2023-03-18T10:28:48.433Z,15.3
2023-03-18T10:34:59.330Z,15.4
2023-03-18T10:40:37.924Z,15.3
2023-03-18T10:46:30.215Z,15.3
2023-03-18T10:52:23.186Z,15.5
2023-03-18T10:58:15.657Z,15.5
2023-03-18T11:04:08.651Z,15.5
2023-03-18T11:10:01.517Z,15.4
2023-03-18T11:15:55.043Z,15.5
2023-03-18T11:21:48.047Z,15.7
2023-03-18T11:27:41.125Z,15.7
2023-03-18T11:33:44.009Z,15.6
2023-03-18T11:39:38.011Z,15.4
2023-03-18T11:45:35.692Z,15.5
2023-03-18T11:51:13.125Z,15.6
2023-03-18T11:56:35.337Z,15.5
2023-03-18T12:01:58.427Z,15.4
2023-03-18T12:07:19.977Z,15.4
2023-03-18T12:13:15.540Z,15.6
2023-03-18T12:19:10.402Z,15.6
2023-03-18T12:24:47.560Z,15.6
2023-03-18T12:30:09.917Z,15.5
2023-03-18T12:35:49.471Z,15.6
2023-03-18T12:41:43.210Z,15.7
2023-03-18T12:47:37.223Z,15.8
2023-03-18T12:53:25.120Z,15.7
2023-03-18T12:59:18.824Z,15.6
2023-03-18T13:05:01.917Z,15.6
2023-03-18T13:10:39.698Z,15.8
2023-03-18T13:16:35.770Z,15.8
2023-03-18T13:22:14.193Z,15.7
2023-03-18T13:28:07.906Z,15.6
2023-03-18T13:34:01.491Z,15.8
2023-03-18T13:39:56.123Z,15.9
2023-03-18T13:45:49.566Z,15.9
2023-03-18T13:51:27.810Z,15.8
2023-03-18T13:57:20.226Z,15.8
2023-03-18T14:03:14.665Z,15.9
2023-03-18T14:09:08.013Z,16
2023-03-18T14:15:17.199Z,15.9
2023-03-18T14:20:58.496Z,15.8
2023-03-18T14:26:22.314Z,15.7
2023-03-18T14:31:44.207Z,15.6
2023-03-18T14:37:21.803Z,15.5
2023-03-18T14:43:17.681Z,15.4
2023-03-18T14:49:03.068Z,15.4
2023-03-18T14:54:40.066Z,15.4
2023-03-18T15:00:32.510Z,15.3
2023-03-18T15:06:25.453Z,15.2
2023-03-18T15:12:16.129Z,15.1
2023-03-18T15:17:53.074Z,15.1
2023-03-18T15:23:46.228Z,15
2023-03-18T15:29:23.483Z,14.9
2023-03-18T15:35:16.661Z,14.9
2023-03-18T15:41:09.991Z,14.8
2023-03-18T15:46:47.628Z,14.8
2023-03-18T15:52:40.403Z,14.7
2023-03-18T15:58:18.700Z,14.7
2023-03-18T16:04:10.756Z,14.6
2023-03-18T16:10:03.705Z,14.6
2023-03-18T16:15:41.276Z,14.5
2023-03-18T16:21:34.270Z,14.4
2023-03-18T16:27:27.663Z,14.4
2023-03-18T16:33:20.053Z,14.4
2023-03-18T16:38:58.080Z,14.3
2023-03-18T16:44:35.309Z,14.4
2023-03-18T16:50:12.753Z,15.1
2023-03-18T16:56:05.608Z,26.6
2023-03-18T17:01:42.540Z,36.6
2023-03-18T17:07:20.642Z,38.8
2023-03-18T17:13:13.739Z,42.9
2023-03-18T17:18:53.176Z,41.7
2023-03-18T17:24:45.066Z,44.8
2023-03-18T17:30:23.055Z,41.6
2023-03-18T17:36:18.748Z,40.1
2023-03-18T17:41:56.220Z,41.6
2023-03-18T17:47:34.206Z,44.7
2023-03-18T17:53:26.426Z,38.4
2023-03-18T17:59:03.468Z,42.8
2023-03-18T18:04:57.257Z,42.4
2023-03-18T18:10:18.408Z,45
2023-03-18T18:15:55.614Z,42
2023-03-18T18:21:51.930Z,43.2
2023-03-18T18:27:30.327Z,41.9
2023-03-18T18:32:55.686Z,42.9
2023-03-18T18:38:33.805Z,41.7
2023-03-18T18:44:26.428Z,43.5
2023-03-18T18:49:48.477Z,44.1
2023-03-18T18:55:42.301Z,43.4
2023-03-18T19:01:35.703Z,41.8
2023-03-18T19:07:14.122Z,43
2023-03-18T19:13:08.121Z,41.5
2023-03-18T19:18:45.836Z,41.1
2023-03-18T19:24:37.909Z,44.1
2023-03-18T19:30:23.160Z,40.9
2023-03-18T19:36:16.100Z,40.9
2023-03-18T19:41:54.027Z,40.3
2023-03-18T19:47:33.085Z,43.5
2023-03-18T19:53:28.541Z,37.8
2023-03-18T19:59:20.670Z,39.8
2023-03-18T20:05:17.548Z,42.7
2023-03-18T20:11:10.801Z,40.4
2023-03-18T20:17:03.557Z,37.2
2023-03-18T20:22:56.522Z,38.3
2023-03-18T20:28:33.596Z,38.8
2023-03-18T20:33:56.422Z,37.5
2023-03-18T20:39:18.502Z,35.3
2023-03-18T20:44:25.243Z,32.8
2023-03-18T20:50:02.870Z,30.9
2023-03-18T20:55:55.622Z,29.4
2023-03-18T21:01:33.045Z,28.3
2023-03-18T21:07:26.687Z,27.6
2023-03-18T21:13:04.713Z,26.9
2023-03-18T21:18:58.218Z,25.4
2023-03-18T21:25:03.577Z,23.9
2023-03-18T21:31:14.657Z,22.9
2023-03-18T21:36:52.900Z,22.2
2023-03-18T21:42:45.439Z,21.5
2023-03-18T21:48:25.951Z,20.9
2023-03-18T21:54:30.271Z,20.4
2023-03-18T22:00:22.931Z,20
2023-03-18T22:06:16.427Z,19.6
2023-03-18T22:11:52.713Z,19.2
2023-03-18T22:17:14.639Z,18.9
2023-03-18T22:23:08.149Z,18.6
2023-03-18T22:28:14.597Z,18.3
2023-03-18T22:33:52.617Z,18.1
2023-03-18T22:39:46.184Z,17.8
2023-03-18T22:45:40.385Z,17.6
2023-03-18T22:51:17.960Z,17.6
2023-03-18T22:56:56.426Z,17.6
2023-03-18T23:02:50.329Z,17.5
2023-03-18T23:08:12.908Z,17.4
2023-03-18T23:14:19.969Z,17.3
2023-03-18T23:20:13.689Z,17.1
2023-03-18T23:26:06.750Z,16.9
2023-03-18T23:32:04.012Z,16.8
2023-03-18T23:37:11.025Z,16.6
2023-03-18T23:43:04.094Z,16.5
2023-03-18T23:48:59.289Z,16.4
2023-03-18T23:54:52.361Z,16.4
